createdAt,value
2022-12-22T00:01:35.983Z,28.30
2022-12-22T00:04:59.306Z,35.97
2022-12-22T00:08:19.631Z,26.97
2022-12-22T00:11:40.163Z,25.50
2022-12-22T00:15:00.968Z,26.33
2022-12-22T00:18:21.824Z,24.07
2022-12-22T00:21:42.086Z,23.73
2022-12-22T00:25:02.521Z,31.33
2022-12-22T00:28:29.411Z,29.00
2022-12-22T00:31:49.460Z,23.10
2022-12-22T00:35:10.162Z,26.67
2022-12-22T00:38:35.208Z,20.10
2022-12-22T00:41:55.328Z,17.50
2022-12-22T00:45:15.581Z,16.57
2022-12-22T00:48:41.180Z,19.07
2022-12-22T00:52:01.471Z,19.20
2022-12-22T00:55:22.631Z,20.23
2022-12-22T00:58:42.909Z,18.93
2022-12-22T01:02:03.559Z,18.40
2022-12-22T01:05:23.848Z,19.07
2022-12-22T01:08:44.231Z,18.73
2022-12-22T01:12:04.552Z,17.90
2022-12-22T01:15:28.786Z,16.20
2022-12-22T01:18:48.956Z,16.40
2022-12-22T01:22:08.975Z,15.73
2022-12-22T01:25:30.713Z,14.40
2022-12-22T01:28:51.045Z,13.83
2022-12-22T01:32:11.523Z,14.03
2022-12-22T01:35:45.277Z,14.70
2022-12-22T01:39:05.519Z,14.57
2022-12-22T01:42:28.800Z,13.53
2022-12-22T01:45:50.762Z,11.10
2022-12-22T01:49:11.175Z,8.57
2022-12-22T01:52:32.168Z,10.40
2022-12-22T01:55:52.610Z,10.83
2022-12-22T01:59:14.483Z,12.47
2022-12-22T02:02:35.752Z,13.53
2022-12-22T02:05:58.650Z,14.43
2022-12-22T02:09:35.951Z,11.77
2022-12-22T02:13:12.759Z,11.10
2022-12-22T02:16:36.028Z,11.17
2022-12-22T02:19:59.445Z,9.93
2022-12-22T02:23:37.870Z,12.17
2022-12-22T02:27:01.112Z,12.60
2022-12-22T02:30:23.214Z,10.73
2022-12-22T02:33:43.480Z,10.70
2022-12-22T02:37:18.519Z,10.73
2022-12-22T02:40:50.929Z,9.63
2022-12-22T02:44:11.256Z,8.93
2022-12-22T02:47:54.078Z,10.63
2022-12-22T02:51:17.912Z,11.93
2022-12-22T02:54:39.057Z,11.93
2022-12-22T02:57:59.329Z,11.70
2022-12-22T03:01:20.725Z,11.57
2022-12-22T03:04:41.063Z,8.80
2022-12-22T03:08:07.689Z,10.53
2022-12-22T03:11:28.607Z,11.20
2022-12-22T03:14:48.915Z,11.83
2022-12-22T03:18:09.311Z,11.47
2022-12-22T03:21:29.713Z,11.13
2022-12-22T03:24:49.935Z,10.17
2022-12-22T03:27:51.604Z,10.77
2022-12-22T03:31:00.917Z,9.67
2022-12-22T03:34:02.643Z,9.07
2022-12-22T03:37:04.209Z,9.53
2022-12-22T03:40:06.195Z,8.07
2022-12-22T03:43:28.566Z,7.90
2022-12-22T03:46:33.276Z,8.73
2022-12-22T03:49:34.994Z,8.73
2022-12-22T03:52:36.580Z,10.03
2022-12-22T03:55:38.166Z,10.37
2022-12-22T03:58:39.736Z,12.87
2022-12-22T04:01:46.033Z,11.87
2022-12-22T04:04:47.995Z,12.20
2022-12-22T04:07:49.684Z,13.90
2022-12-22T04:11:09.811Z,13.77
2022-12-22T04:14:11.379Z,12.73
2022-12-22T04:17:12.953Z,12.47
2022-12-22T04:20:18.097Z,12.17
2022-12-22T04:23:19.790Z,11.70
2022-12-22T04:26:25.205Z,11.13
2022-12-22T04:29:27.455Z,11.30
2022-12-22T04:32:29.335Z,13.30
2022-12-22T04:35:30.964Z,16.50
2022-12-22T04:38:32.563Z,15.83
2022-12-22T04:41:34.200Z,16.53
2022-12-22T04:44:35.870Z,16.23
2022-12-22T04:47:37.525Z,14.50
2022-12-22T04:50:39.201Z,14.50
2022-12-22T04:53:40.839Z,13.93
2022-12-22T04:56:42.515Z,13.03
2022-12-22T04:59:44.189Z,13.73
2022-12-22T05:02:45.942Z,12.53
2022-12-22T05:05:47.674Z,12.90
2022-12-22T05:08:49.279Z,13.33
2022-12-22T05:11:50.889Z,13.70
2022-12-22T05:14:52.971Z,14.67
2022-12-22T05:17:54.931Z,25.57
2022-12-22T05:20:56.627Z,19.37
2022-12-22T05:23:58.231Z,16.83
2022-12-22T05:26:59.962Z,17.00
2022-12-22T05:30:01.701Z,19.47
2022-12-22T05:33:03.461Z,20.67
2022-12-22T05:36:05.241Z,16.97
2022-12-22T05:39:08.064Z,21.03
2022-12-22T05:42:09.689Z,21.37
2022-12-22T05:45:18.628Z,19.30
2022-12-22T05:48:27.394Z,20.83
2022-12-22T05:51:31.281Z,20.80
2022-12-22T05:54:32.871Z,18.60
2022-12-22T05:57:34.948Z,22.63
2022-12-22T06:00:36.598Z,26.93
2022-12-22T06:03:38.378Z,33.53
2022-12-22T06:06:40.185Z,26.23
2022-12-22T06:09:42.184Z,31.57
2022-12-22T06:12:44.175Z,25.60
2022-12-22T06:15:45.878Z,20.67
2022-12-22T06:18:48.211Z,12.37
2022-12-22T06:21:49.977Z,11.33
2022-12-22T06:24:51.750Z,22.10
2022-12-22T06:27:53.385Z,26.57
2022-12-22T06:30:55.295Z,35.20
2022-12-22T06:33:56.993Z,25.33
2022-12-22T06:36:58.644Z,17.20
2022-12-22T06:40:00.273Z,14.40
2022-12-22T06:43:11.249Z,13.53
2022-12-22T06:46:12.947Z,12.50
2022-12-22T06:49:14.681Z,9.17
2022-12-22T06:52:16.308Z,9.83
2022-12-22T06:55:17.905Z,9.73
2022-12-22T06:58:19.478Z,9.17
2022-12-22T07:01:21.268Z,10.10
2022-12-22T07:04:23.065Z,10.77
2022-12-22T07:07:24.880Z,16.77
2022-12-22T07:10:45.015Z,20.83
2022-12-22T07:13:46.910Z,29.93
2022-12-22T07:16:48.704Z,29.93
2022-12-22T07:19:50.332Z,29.70
2022-12-22T07:22:51.907Z,23.60
2022-12-22T07:25:53.538Z,24.17
2022-12-22T07:28:55.164Z,23.47
2022-12-22T07:31:57.017Z,29.67
2022-12-22T07:35:04.877Z,28.83
2022-12-22T07:38:07.330Z,30.07
2022-12-22T07:41:28.463Z,27.33
2022-12-22T07:44:30.061Z,21.47
2022-12-22T07:47:35.248Z,29.83
2022-12-22T07:50:37.227Z,29.17
2022-12-22T07:53:39.857Z,23.50
2022-12-22T07:56:41.939Z,25.23
2022-12-22T07:59:43.526Z,109.23
2022-12-22T08:02:55.538Z,111.27
2022-12-22T08:05:57.307Z,91.90
2022-12-22T08:08:58.930Z,41.00
2022-12-22T08:12:00.590Z,23.83
2022-12-22T08:15:02.687Z,27.40
2022-12-22T08:18:04.481Z,29.13
2022-12-22T08:21:07.244Z,36.00
2022-12-22T08:24:08.963Z,34.97
2022-12-22T08:27:20.738Z,23.20
2022-12-22T08:30:27.341Z,40.13
2022-12-22T08:33:28.966Z,51.13
2022-12-22T08:36:31.842Z,37.80
2022-12-22T08:39:35.908Z,32.67
2022-12-22T08:42:37.887Z,36.73
2022-12-22T08:45:40.006Z,34.73
2022-12-22T08:48:41.661Z,33.80
2022-12-22T08:51:43.662Z,35.73
2022-12-22T08:54:45.326Z,34.90
2022-12-22T08:57:55.884Z,39.40
2022-12-22T09:00:57.965Z,46.23
2022-12-22T09:03:59.656Z,43.47
2022-12-22T09:07:02.735Z,46.17
2022-12-22T09:10:04.492Z,46.43
2022-12-22T09:13:06.165Z,46.30
2022-12-22T09:16:08.413Z,42.13
2022-12-22T09:19:11.264Z,34.60
2022-12-22T09:22:13.012Z,34.90
2022-12-22T09:25:14.762Z,32.80
2022-12-22T09:28:16.374Z,31.97
2022-12-22T09:31:19.093Z,28.20
2022-12-22T09:34:20.852Z,31.43
2022-12-22T09:37:22.521Z,36.70
2022-12-22T09:40:24.847Z,39.37
2022-12-22T09:43:28.257Z,41.77
2022-12-22T09:46:31.687Z,36.90
2022-12-22T09:49:33.397Z,38.30
2022-12-22T09:52:34.940Z,37.43
2022-12-22T09:55:42.587Z,36.47
2022-12-22T09:58:44.485Z,34.93
2022-12-22T10:01:58.970Z,43.47
2022-12-22T10:05:06.732Z,42.37
2022-12-22T10:08:12.777Z,43.87
2022-12-22T10:11:16.176Z,38.37
2022-12-22T10:14:17.844Z,28.00
2022-12-22T10:17:21.438Z,27.63
2022-12-22T10:20:25.469Z,22.47
2022-12-22T10:23:29.484Z,24.97
2022-12-22T10:26:33.459Z,16.83
2022-12-22T10:29:35.489Z,18.57
2022-12-22T10:32:37.057Z,13.90
2022-12-22T10:35:46.795Z,13.30
2022-12-22T10:38:54.480Z,14.10
2022-12-22T10:42:16.301Z,13.70
2022-12-22T10:45:19.688Z,16.40
2022-12-22T10:48:28.573Z,13.87
2022-12-22T10:51:30.185Z,14.93
2022-12-22T10:54:33.139Z,14.10
2022-12-22T10:57:34.758Z,16.33
2022-12-22T11:00:37.433Z,22.00
2022-12-22T11:03:39.151Z,18.67
2022-12-22T11:06:42.998Z,18.43
2022-12-22T11:09:44.620Z,14.90
2022-12-22T11:12:49.075Z,14.67
2022-12-22T11:16:23.242Z,14.67
2022-12-22T11:19:42.900Z,17.87
2022-12-22T11:23:04.821Z,14.97
2022-12-22T11:26:09.712Z,13.93
2022-12-22T11:29:11.357Z,9.40
2022-12-22T11:32:31.833Z,13.30
2022-12-22T11:35:45.717Z,25.00
2022-12-22T11:38:57.156Z,11.00
2022-12-22T11:42:17.568Z,9.27
2022-12-22T11:45:43.067Z,7.10
2022-12-22T11:48:45.223Z,9.20
2022-12-22T11:51:56.499Z,8.93
2022-12-22T11:55:16.875Z,11.57
2022-12-22T11:58:24.426Z,14.10
2022-12-22T12:01:35.226Z,10.33
2022-12-22T12:04:50.123Z,12.23
2022-12-22T12:07:57.038Z,9.60
2022-12-22T12:11:18.989Z,11.33
2022-12-22T12:14:20.641Z,8.90
2022-12-22T12:17:22.243Z,8.60
2022-12-22T12:20:26.840Z,9.57
2022-12-22T12:24:04.045Z,8.23
2022-12-22T12:27:14.722Z,7.93
2022-12-22T12:33:41.117Z,9.07
2022-12-22T12:36:46.306Z,6.70
2022-12-22T12:39:51.005Z,8.27
2022-12-22T12:42:53.048Z,8.33
2022-12-22T12:45:55.468Z,7.13
2022-12-22T12:48:57.099Z,9.47
2022-12-22T12:51:58.690Z,6.90
2022-12-22T12:55:22.354Z,7.77
2022-12-22T12:58:38.086Z,8.47
2022-12-22T13:01:39.767Z,10.83
2022-12-22T13:05:02.149Z,9.43
2022-12-22T13:08:06.839Z,12.07
2022-12-22T13:11:08.596Z,13.73
2022-12-22T13:14:10.588Z,11.57
2022-12-22T13:17:31.147Z,13.97
2022-12-22T13:20:34.966Z,12.13
2022-12-22T13:24:06.171Z,17.10
2022-12-22T13:27:05.435Z,11.53
2022-12-22T13:30:13.191Z,14.13
2022-12-22T13:33:17.563Z,14.40
2022-12-22T13:36:20.424Z,14.97
2022-12-22T13:39:22.085Z,16.40
2022-12-22T13:42:23.747Z,21.90
2022-12-22T13:45:33.672Z,23.80
2022-12-22T13:48:44.749Z,22.73
2022-12-22T13:51:48.016Z,24.23
2022-12-22T13:54:49.911Z,26.23
2022-12-22T13:57:58.326Z,28.53
2022-12-22T14:01:10.133Z,23.47
2022-12-22T14:04:13.188Z,20.83
2022-12-22T14:07:16.087Z,21.73
2022-12-22T14:10:25.560Z,23.33
2022-12-22T14:13:30.457Z,25.47
2022-12-22T14:16:32.198Z,24.73
2022-12-22T14:19:34.948Z,29.30
2022-12-22T14:22:38.736Z,18.87
2022-12-22T14:25:42.009Z,19.93
2022-12-22T14:28:50.337Z,20.00
2022-12-22T14:31:55.907Z,22.63
2022-12-22T14:34:58.007Z,19.57
2022-12-22T14:38:02.540Z,31.73
2022-12-22T14:41:09.663Z,62.30
2022-12-22T14:44:16.516Z,59.67
2022-12-22T14:47:27.018Z,50.87
2022-12-22T14:50:29.490Z,57.10
2022-12-22T14:53:57.039Z,55.90
2022-12-22T14:57:02.243Z,55.70
2022-12-22T15:00:09.635Z,59.13
2022-12-22T15:03:30.268Z,66.30
2022-12-22T15:06:37.058Z,64.37
2022-12-22T15:10:13.953Z,59.67
2022-12-22T15:13:03.484Z,67.43
2022-12-22T15:16:05.447Z,67.37
2022-12-22T15:19:07.168Z,68.67
2022-12-22T15:22:08.879Z,57.30
2022-12-22T15:25:14.921Z,56.57
2022-12-22T15:28:19.042Z,52.03
2022-12-22T15:31:20.688Z,64.00
2022-12-22T15:34:24.263Z,59.30
2022-12-22T15:37:25.871Z,57.77
2022-12-22T15:40:28.337Z,56.57
2022-12-22T15:43:56.634Z,50.30
2022-12-22T15:46:55.033Z,50.03
2022-12-22T15:49:56.724Z,49.53
2022-12-22T15:52:59.071Z,48.10
2022-12-22T15:56:01.094Z,45.73
2022-12-22T15:59:02.752Z,46.50
2022-12-22T16:02:09.961Z,50.37
2022-12-22T16:05:12.182Z,55.93
2022-12-22T16:08:18.615Z,58.47
2022-12-22T16:11:20.343Z,53.17
2022-12-22T16:14:22.294Z,68.93
2022-12-22T16:17:24.863Z,63.07
2022-12-22T16:20:30.620Z,53.07
2022-12-22T16:23:35.979Z,48.63
2022-12-22T16:26:37.657Z,50.90
2022-12-22T16:29:50.593Z,43.47
2022-12-22T16:32:52.593Z,48.53
2022-12-22T16:35:54.251Z,35.53
2022-12-22T16:38:55.931Z,23.00
2022-12-22T16:41:59.882Z,35.03
2022-12-22T16:45:05.152Z,38.73
2022-12-22T16:48:10.064Z,24.80
2022-12-22T16:51:16.932Z,25.37
2022-12-22T16:54:18.624Z,32.20
2022-12-22T16:57:20.365Z,30.93
2022-12-22T17:00:23.210Z,30.40
2022-12-22T17:03:25.933Z,31.33
2022-12-22T17:06:27.910Z,36.27
2022-12-22T17:09:52.887Z,24.73
2022-12-22T17:12:56.032Z,29.27
2022-12-22T17:15:57.945Z,34.03
2022-12-22T17:18:59.761Z,40.13
2022-12-22T17:22:04.554Z,32.53
2022-12-22T17:25:07.956Z,34.70
2022-12-22T17:28:13.061Z,38.77
2022-12-22T17:31:16.408Z,34.03
2022-12-22T17:34:18.953Z,27.60
2022-12-22T17:37:22.902Z,38.47
2022-12-22T17:40:30.516Z,31.53
2022-12-22T17:43:35.645Z,37.17
2022-12-22T17:46:37.435Z,34.30
2022-12-22T17:49:39.056Z,37.00
2022-12-22T17:52:41.309Z,38.67
2022-12-22T17:59:04.717Z,32.53
2022-12-22T18:02:06.500Z,30.80
2022-12-22T18:05:11.977Z,34.47
2022-12-22T18:08:16.122Z,22.50
2022-12-22T18:11:18.347Z,24.83
2022-12-22T18:14:26.036Z,27.70
2022-12-22T18:17:35.117Z,27.00
2022-12-22T18:20:37.595Z,22.87
2022-12-22T18:23:41.087Z,23.27
2022-12-22T18:26:47.778Z,31.27
2022-12-22T18:29:49.542Z,32.10
2022-12-22T18:32:51.974Z,33.37
2022-12-22T18:35:54.355Z,28.20
2022-12-22T18:38:59.088Z,25.73
2022-12-22T18:42:00.874Z,21.63
2022-12-22T18:45:02.830Z,25.77
2022-12-22T18:48:04.515Z,22.07
2022-12-22T18:51:06.955Z,27.27
2022-12-22T18:54:31.242Z,36.63
2022-12-22T18:57:33.001Z,34.27
2022-12-22T19:00:36.187Z,26.97
2022-12-22T19:03:37.830Z,24.70
2022-12-22T19:06:39.515Z,21.10
2022-12-22T19:09:42.727Z,22.43
2022-12-22T19:12:45.539Z,19.97
2022-12-22T19:15:47.501Z,17.00
2022-12-22T19:18:49.138Z,17.97
2022-12-22T19:21:50.779Z,17.33
2022-12-22T19:24:57.403Z,19.77
2022-12-22T19:28:05.286Z,16.43
2022-12-22T19:31:07.649Z,20.73
2022-12-22T19:34:14.022Z,22.10
2022-12-22T19:37:15.831Z,25.80
2022-12-22T19:40:19.170Z,30.83
2022-12-22T19:43:21.147Z,30.87
2022-12-22T19:46:23.674Z,26.60
2022-12-22T19:49:27.265Z,24.47
2022-12-22T19:52:28.879Z,25.40
2022-12-22T19:55:32.593Z,28.50
2022-12-22T19:58:36.999Z,27.93
2022-12-22T20:01:38.816Z,29.63
2022-12-22T20:04:40.491Z,20.90
2022-12-22T20:07:42.114Z,31.73
2022-12-22T20:10:44.599Z,23.33
2022-12-22T20:13:46.907Z,33.37
2022-12-22T20:16:48.607Z,38.77
2022-12-22T20:19:50.526Z,54.07
2022-12-22T20:22:56.768Z,52.47
2022-12-22T20:26:01.495Z,47.33
2022-12-22T20:29:03.462Z,48.03
2022-12-22T20:32:05.210Z,34.63
2022-12-22T20:35:06.891Z,30.00
2022-12-22T20:38:12.909Z,19.63
2022-12-22T20:41:14.537Z,26.87
2022-12-22T20:44:16.224Z,24.67
2022-12-22T20:47:22.192Z,25.80
2022-12-22T20:50:25.907Z,22.07
2022-12-22T20:53:27.719Z,23.57
2022-12-22T20:56:31.073Z,18.77
2022-12-22T20:59:32.618Z,32.93
2022-12-22T21:02:34.503Z,27.53
2022-12-22T21:05:36.589Z,26.50
2022-12-22T21:08:38.156Z,28.17
2022-12-22T21:11:39.761Z,25.47
2022-12-22T21:14:41.353Z,27.30
2022-12-22T21:17:46.097Z,27.50
2022-12-22T21:20:48.904Z,25.77
2022-12-22T21:23:50.543Z,23.13
2022-12-22T21:26:53.211Z,21.53
2022-12-22T21:29:54.852Z,19.80
2022-12-22T21:32:56.602Z,18.63
2022-12-22T21:35:59.657Z,15.50
2022-12-22T21:39:03.535Z,15.17
2022-12-22T21:42:05.877Z,19.00
2022-12-22T21:45:11.362Z,16.70
2022-12-22T21:48:14.031Z,10.87
2022-12-22T21:51:15.751Z,15.93
2022-12-22T21:54:17.901Z,19.43
2022-12-22T21:57:19.671Z,23.23
2022-12-22T22:00:22.099Z,22.10
2022-12-22T22:03:23.900Z,15.77
2022-12-22T22:06:25.487Z,20.07
2022-12-22T22:09:27.094Z,20.70
2022-12-22T22:12:36.786Z,19.40
2022-12-22T22:15:38.548Z,18.07
2022-12-22T22:18:41.071Z,18.30
2022-12-22T22:21:42.683Z,18.87
2022-12-22T22:24:44.371Z,16.70
2022-12-22T22:27:48.104Z,13.67
2022-12-22T22:30:49.969Z,16.93
2022-12-22T22:33:51.679Z,17.60
2022-12-22T22:36:53.263Z,16.00
2022-12-22T22:39:54.952Z,17.73
2022-12-22T22:42:57.063Z,15.63
2022-12-22T22:45:58.740Z,10.33
2022-12-22T22:49:01.475Z,10.60
2022-12-22T22:52:03.294Z,12.20
2022-12-22T22:55:05.215Z,15.83
2022-12-22T22:58:06.923Z,15.67
2022-12-22T23:01:09.825Z,15.20
2022-12-22T23:04:11.775Z,17.43
2022-12-22T23:07:13.610Z,16.67
2022-12-22T23:10:15.379Z,18.47
2022-12-22T23:13:17.017Z,18.30
2022-12-22T23:16:21.464Z,18.27
2022-12-22T23:19:24.307Z,18.63
2022-12-22T23:22:25.932Z,20.63
2022-12-22T23:25:27.630Z,17.27
2022-12-22T23:28:29.270Z,17.23
2022-12-22T23:31:34.747Z,16.00
2022-12-22T23:34:36.481Z,11.03
2022-12-22T23:37:38.217Z,11.87
2022-12-22T23:40:55.949Z,9.37
2022-12-22T23:43:57.648Z,8.67
2022-12-22T23:46:59.221Z,8.80
2022-12-22T23:50:00.969Z,7.23
2022-12-22T23:53:02.761Z,6.27
2022-12-22T23:56:04.526Z,7.20
2022-12-22T23:59:06.319Z,6.93
